GP di Cina

MX 2019. A Glenn Coldenhoff l'apertura del GP della Cina

- All’olandese il primo scontro MXGP che ha visto Gajser 11° dopo un paio di errori, mentre Prado domina e ipoteca quella che potrebbe essere la sua ultima doppietta MX2
MX 2019. A Glenn Coldenhoff l'apertura del GP della Cina

SHANGAI - L’inedito tracciato di Shangai ha fatto subito una dura selezione tra i contendenti dell’ultima tappa iridata, prima dell’atteso Motocross delle Nazioni. Il motivo? Il fondo piuttosto morbido nello strato superficiale, che ha reso difficile il controllo della moto e ha portato i piloti alla loro pazzesca velocità raggiunta al giorno d’oggi nei GP a fare molti errori.

Il primo a farne le spese è stato il fresco campione del mondo Tim Gajser, che, dopo essere stato il più veloce nelle prove cronometrate ed essere partito al comando della qualifica 450, nel corso del primo giro è scivolato ed è caduto anche in quello successivo, ritrovandosi a rincorrere il gruppo col ruolo di fanalino di coda, chiudendo la manche all’11° posto.

Che il terreno mettesse un po’ in soggezione i piloti lo ha confermato anche Jeffrey Herlings, il quale, nonostante la sua scontata competitività sottolineata dal suo secondo tempo nelle crono in gara, è spuntato 6° ed ha tagliato il traguardo guadagnando una sola posizione, avendo preferito correre senza forzare troppo il passo.

Ne ha così approfittato Glenn Coldenhoff, che, dopo essersi trovato in mano il ruolo di battistrada, ha mantenuto i nervi saldi sino alla fine, concludendo davanti a Arminas Jasikonis, Jeremy Seewer e Pauls Jonass.

 

Dopo aver rifilato quasi un secondo e mezzo alla seconda guida KTM Tom Vialle nelle cronometrate, Jorge Prado ha compiuto la sua solita cavalcata solitaria verso la bandiera a scacchi, che lo ha visto primeggiare davanti al suo compagno di squadra, a Calvin Vlaanderen e al transalpino della Yamaha SM Action, Maxime Renaux.

Gara difficile invece per i piloti della Husqvarna Maddii Racing, Mattia Guadagnini e Alberto Forato, autori entrambi di errori che li hanno portati a chiudere rispettivamente 13° e 14°.

MXGP - La classifica della Qualifying Race

Pos Nr Rider Nat. Fed. Bike Time laps Diff. First Diff. Prev. Bestlaptime in lap Speed
1 259 Coldenhoff, Glenn NED KNMV KTM 24:42.040 13 0:00.000 0:00.000 1:44.610 2 55.7
2 27 Jasikonis, Arminas LTU LMSF Husqvarna 24:43.468 13 0:01.428 0:01.428 1:44.710 2 55.6
3 91 Seewer, Jeremy SUI FMS Yamaha 24:44.382 13 0:02.342 0:00.914 1:44.738 5 55.6
4 41 Jonass, Pauls LAT LAMSF Husqvarna 24:45.324 13 0:03.284 0:00.942 1:44.448 3 55.8
5 84 Herlings, Jeffrey NED KNMV KTM 24:45.468 13 0:03.428 0:00.144 1:44.086 13 56
6 128 Monticelli, Ivo ITA FMI KTM 25:06.968 13 0:24.928 0:21.500 1:45.833 7 55.1
7 89 Van Horebeek, Jeremy BEL FMB Honda 25:08.947 13 0:26.907 0:01.979 1:46.370 7 54.8
8 21 Paulin, Gautier FRA MCM Yamaha 25:14.266 13 0:32.226 0:05.319 1:46.655 4 54.6
9 22 Strijbos, Kevin BEL FMB Yamaha 25:17.660 13 0:35.620 0:03.394 1:47.005 4 54.5
10 911 Tixier, Jordi FRA FFM KTM 25:27.057 13 0:45.017 0:09.397 1:47.126 7 54.4
11 243 Gajser, Tim SLO AMZS Honda 25:32.004 13 0:49.964 0:04.947 1:46.175 5 54.9
12 189 Bogers, Brian NED KNMV Honda 25:37.311 13 0:55.271 0:05.307 1:46.976 5 54.5
13 152 Petrov, Petar BUL BMF KTM 25:47.458 13 1:05.418 0:10.147 1:47.354 6 54.3
14 83 Renkens, Nathan BEL FMB KTM 26:28.844 13 1:46.804 0:41.386 1:50.791 2 52.6
15 311 Romphan, Chaiyan THA FMSCT Yamaha 24:57.439 11 2 laps 2 laps 2:00.482 4 48.4
16 618 Xu, Jianhao CHN CAMF Yamaha 26:45.184 11 2 laps 1:47.745 2:06.594 1 46
17 244 Nakpane, Madjade TOG IMI Yamaha 26:51.570 11 2 laps 0:06.386 2:11.521 7 44.3
18 531 Galligari, Francesco ITA FMI Husqvarna 25:51.999 10 3 laps 1 lap 2:12.599 2 43.9
19 727 Deng, Liansong CHN CAMF KTM 26:35.487 10 3 laps 0:43.488 2:11.437 1 44.3
20 59 Peng, Tianwei CHN CAMF KTM 25:50.781 8 5 laps 2 laps 2:33.229 1 38

 

MX2 - La classifica della Qualifying Race

Pos Nr Rider Nat. Fed. Bike Time laps Diff. First Diff. Prev. Bestlaptime in lap Speed
1 61 Prado, Jorge ESP RFME KTM 25:02.251 13 0:00.000 0:00.000 1:45.944 3 55
2 28 Vialle, Tom FRA FFM KTM 25:19.744 13 0:17.493 0:17.493 1:45.778 2 55.1
3 10 Vlaanderen, Calvin NED KNMV Honda 25:31.819 13 0:29.568 0:12.075 1:46.628 6 54.6
4 959 Renaux, Maxime FRA FFM Yamaha 25:46.770 13 0:44.519 0:14.951 1:49.428 3 53.2
5 43 Evans, Mitchell AUS MA Honda 25:48.128 13 0:45.877 0:01.358 1:49.299 7 53.3
6 225 Strubhart Moreau, Brian FRA FFM Kawasaki 25:49.651 13 0:47.400 0:01.523 1:48.517 2 53.7
7 811 Sterry, Adam GBR ACU Kawasaki 25:55.167 13 0:52.916 0:05.516 1:49.163 3 53.4
8 193 Geerts, Jago BEL FMB Yamaha 25:56.731 13 0:54.480 0:01.564 1:48.148 5 53.9
9 19 Olsen, Thomas Kjer DEN DMU Husqvarna 26:00.033 13 0:57.782 0:03.302 1:47.772 6 54.1
10 39 Van De Moosdijk, Roan NED KNMV Kawasaki 26:02.766 13 1:00.515 0:02.733 1:48.542 4 53.7
11 102 Sikyna, Richard SVK SMF KTM 26:05.182 13 1:02.931 0:02.416 1:48.579 4 53.7
12 66 Larranaga Olano, Iker ESP RFME KTM 26:08.081 13 1:05.830 0:02.899 1:49.325 3 53.3
13 121 Guadagnini, Mattia ITA FMI Husqvarna 26:16.841 13 1:14.590 0:08.760 1:49.451 2 53.2
14 303 Forato, Alberto ITA FMI Husqvarna 26:21.371 13 1:19.120 0:04.530 1:50.182 5 52.9
15 101 Pichon, Zachary FRA FFM Honda 26:52.819 13 1:50.568 0:31.448 1:50.062 8 52.9
16 423 Papenmeier, Larissa GER DMSB Yamaha 26:42.457 12 1 lap 1 lap 1:59.015 5 49
17 519 Wang, Ke CHN CAMF Yamaha 25:10.797 10 3 laps 2 laps 2:07.464 2 45.7
18 181 Pu, Yang CHN CAMF Yamaha 25:49.125 10 3 laps 0:38.328 2:08.661 1 45.3
19 909 Hu, Bolin CHN CAMF Honda 26:50.073 10 3 laps 1:00.948 2:16.439 2 42.7
20 42 Peng, Yongming CHN CAMF Honda 26:50.772 10 3 laps 0:00.699 2:15.468 1 43
  • Dario116

    Ma quella sarebbe una pista da mondiale motocross?
    Siamo dovuti andare in Cina per correre su un fettucciato con quattro salti?
    È possibile che in Europa con tutte le belle piste che abbiamo dobbiamo andare a correre su qualcosa di più simile a un prato da enduro
  • walter.sciutto, Nizza Monferrato (AT)

    Ragazzi, non fate scherzi...il Nazioni è dietro l'angolo, cerchiamo di allenarci nelle partenze.
Inserisci il tuo commento